Terminal Aerodrome Forecast
Issued by NWS

Home | Current Version | Previous Version | Text Only | Print | Product List | Glossary On
Versions: 1 2 3 4 5 6 7 8 9 10 11 12 13 14
000
FTPA31 PHFO 231908 AAA
TAFMDY
TAF AMD
PMDY 231908Z 2319/2418 22004KT P6SM FEW015 SCT040 BKN080
      TEMPO 2319/2321 BKN015=

USA.gov is the U.S. government's official web portal to all federal, state and local government web resources and services.